Point Salines, Grenada

10:04 PM AST on February 07, 2016 (GMT -0400)
Point Salines International | | Change Station
CLOSE
Current Station
Airport
Location: Point Salines,
Elevation: 23 ft
Nearby Weather Stations

Elev 23 ft 12.00 °N, 61.79 °W | Updated 4 minutes ago

Partly Cloudy
Partly Cloudy
79 °F
Feels Like 79 °F
N
12
Wind Variable Wind from ENE

Today
High -- | Low -- °F
--% Chance of Precip.
Yesterday
High -- | Low -- °F
Precip. -- in
Pressure 29.98 in
Visibility 6.2 miles
Clouds Few 1800 ft
Dew Point 73 °F
Humidity 83%
Rainfall 0.00 in
Snow Depth Not available.
6:31 AM 6:11 PM
Waning Crescent, 0% visible
METAR TGPY 080200Z 07010KT 9999 FEW018 26/23 Q1015 NOSIG
Pressure 29.98 in
Visibility 6.2 miles
Clouds Few 1800 ft
Dew Point 73 °F
Humidity 83%
Rainfall 0.00 in
Snow Depth Not available.
6:31 AM 6:11 PM
Waning Crescent, 0% visible
METAR TGPY 080200Z 07010KT 9999 FEW018 26/23 Q1015 NOSIG

10-Day Weather Forecast

No radar image for this location.
×

Almanac

Astronomy

Feb. 07, 2016 Rise Set
Actual Time
Civil Twilight
Nautical Twilight
Astronomical Twilight
Moon
Length of Visible Light
Length of Day
Tomorrow will be .
, % of the Moon is Illuminated

Today's Extremes

Country Highs Country Lows

Community

WunderPhotos

Upload Photos

1,891,363 photos uploaded!

WunderBlog® & News

Nearby

Air Quality

  Air Quality AQ Index Pollutant
Not available.

Snow Depth

Station Depth Elevation

Earthquake Activity

City Distance Mag. Time & Date
Minimum magnitude displayed is 2.5.

Coastal Water Temperatures

Place Temperature

Stations

Nearby Weather Stations

Station Location Temp. Windchill Dew Point Humidity Wind Precip. Elev Updated Type